createdAt,value
2019-02-18T00:02:18.826Z,112.67
2019-02-18T00:07:27.343Z,119.36
2019-02-18T00:12:30.866Z,117.00
2019-02-18T00:17:38.894Z,122.55
2019-02-18T00:22:43.091Z,125.60
2019-02-18T00:27:51.069Z,126.27
2019-02-18T00:32:59.103Z,127.91
2019-02-18T00:38:03.687Z,128.00
2019-02-18T00:43:10.821Z,108.00
2019-02-18T00:48:14.704Z,112.00
2019-02-18T00:53:26.884Z,114.27
2019-02-18T00:58:30.822Z,119.80
2019-02-18T01:03:42.032Z,108.43
2019-02-18T01:08:45.803Z,127.00
2019-02-18T01:13:49.764Z,123.80
2019-02-18T01:18:57.763Z,125.18
2019-02-18T01:24:10.062Z,117.67
2019-02-18T01:29:13.288Z,111.00
2019-02-18T01:34:20.708Z,116.40
2019-02-18T01:39:25.195Z,121.50
2019-02-18T01:44:33.198Z,113.27
2019-02-18T01:49:40.990Z,114.18
2019-02-18T01:54:47.761Z,107.33
2019-02-18T01:59:59.023Z,109.50
2019-02-18T02:05:02.906Z,117.50
2019-02-18T02:10:12.352Z,113.50
2019-02-18T02:15:25.786Z,117.67
2019-02-18T02:20:29.511Z,118.00
2019-02-18T02:25:34.511Z,121.83
2019-02-18T02:30:38.103Z,121.60
2019-02-18T02:35:42.511Z,122.33
2019-02-18T02:40:48.444Z,116.12
2019-02-18T02:46:00.420Z,122.60
2019-02-18T02:51:06.307Z,121.00
2019-02-18T02:56:12.310Z,115.00
2019-02-18T03:01:20.109Z,116.55
2019-02-18T03:06:27.886Z,111.40
2019-02-18T03:11:32.563Z,115.00
2019-02-18T03:16:43.793Z,118.80
2019-02-18T03:21:52.271Z,117.73
2019-02-18T03:26:56.579Z,116.17
2019-02-18T03:32:06.023Z,109.75
2019-02-18T03:37:10.338Z,104.75
2019-02-18T03:42:21.476Z,105.20
2019-02-18T03:47:24.627Z,112.50
2019-02-18T03:52:29.726Z,116.00
2019-02-18T03:57:37.372Z,113.50
2019-02-18T04:02:49.997Z,100.36
2019-02-18T04:07:57.936Z,102.30
2019-02-18T04:13:08.912Z,93.56
2019-02-18T04:18:20.066Z,89.90
2019-02-18T04:23:23.718Z,92.50
2019-02-18T04:28:34.926Z,103.60
2019-02-18T04:33:43.752Z,96.10
2019-02-18T04:38:54.437Z,92.50
2019-02-18T04:43:58.426Z,96.67
2019-02-18T04:49:01.270Z,94.50
2019-02-18T04:54:04.754Z,93.00
2019-02-18T04:59:13.131Z,95.20
2019-02-18T05:04:24.042Z,91.79
2019-02-18T05:09:27.386Z,88.00
2019-02-18T05:14:37.530Z,88.78
2019-02-18T05:19:48.669Z,84.56
2019-02-18T05:24:58.457Z,85.78
2019-02-18T05:30:07.831Z,83.56
2019-02-18T05:35:18.611Z,84.56
2019-02-18T05:40:23.278Z,84.00
2019-02-18T05:45:33.929Z,79.22
2019-02-18T05:50:43.274Z,81.50
2019-02-18T05:55:47.497Z,79.33
2019-02-18T06:00:52.649Z,77.00
2019-02-18T06:06:00.233Z,79.78
2019-02-18T06:11:07.642Z,76.89
2019-02-18T06:16:12.015Z,76.00
2019-02-18T06:21:18.839Z,78.25
2019-02-18T06:26:23.851Z,77.00
2019-02-18T06:31:31.487Z,75.44
2019-02-18T06:36:39.315Z,76.33
2019-02-18T06:41:46.888Z,78.33
2019-02-18T06:46:56.867Z,75.00
2019-02-18T06:52:03.670Z,68.87
2019-02-18T06:57:08.623Z,73.00
2019-02-18T07:02:13.680Z,78.00
2019-02-18T07:07:20.508Z,73.00
2019-02-18T07:12:27.762Z,76.50
2019-02-18T07:17:38.244Z,70.25
2019-02-18T07:22:42.604Z,72.17
2019-02-18T07:27:50.474Z,69.56
2019-02-18T07:32:54.928Z,78.25
2019-02-18T07:38:04.567Z,72.89
2019-02-18T07:43:11.630Z,74.22
2019-02-18T07:48:18.696Z,73.22
2019-02-18T07:53:26.634Z,76.50
2019-02-18T07:58:34.624Z,74.00
2019-02-18T08:03:43.337Z,73.56
2019-02-18T08:08:50.481Z,69.25
2019-02-18T08:13:54.901Z,70.00
2019-02-18T08:18:59.774Z,76.25
2019-02-18T08:24:08.813Z,70.50
2019-02-18T08:29:18.506Z,73.89
2019-02-18T08:34:25.746Z,90.29
2019-02-18T08:39:29.974Z,73.00
2019-02-18T08:44:37.342Z,69.67
2019-02-18T08:49:41.923Z,73.25
2019-02-18T08:54:56.326Z,79.00
2019-02-18T08:59:56.087Z,96.86
2019-02-18T09:05:07.926Z,113.50
2019-02-18T09:10:16.868Z,108.40
2019-02-18T09:15:25.816Z,104.60
2019-02-18T09:20:30.089Z,87.33
2019-02-18T09:25:43.387Z,91.89
2019-02-18T09:30:50.389Z,87.00
2019-02-18T09:35:57.917Z,77.25
2019-02-18T09:41:07.910Z,81.00
2019-02-18T09:46:17.976Z,83.00
2019-02-18T09:51:28.019Z,78.56
2019-02-18T09:56:33.003Z,85.00
2019-02-18T10:01:43.363Z,73.44
2019-02-18T10:06:50.326Z,78.11
2019-02-18T10:11:58.652Z,87.00
2019-02-18T10:17:04.443Z,89.50
2019-02-18T10:22:12.809Z,91.11
2019-02-18T10:27:21.252Z,96.11
2019-02-18T10:32:31.168Z,88.00
2019-02-18T10:37:41.003Z,86.33
2019-02-18T10:42:50.965Z,79.78
2019-02-18T10:47:57.665Z,74.12
2019-02-18T10:53:07.546Z,74.00
2019-02-18T10:58:15.663Z,71.87
2019-02-18T11:03:22.124Z,73.00
2019-02-18T11:08:31.394Z,69.75
2019-02-18T11:13:39.530Z,74.00
2019-02-18T11:18:48.390Z,74.25
2019-02-18T11:23:52.904Z,71.25
2019-02-18T11:29:00.224Z,68.37
2019-02-18T11:34:09.887Z,72.78
2019-02-18T11:39:19.545Z,72.00
2019-02-18T11:44:26.617Z,78.44
2019-02-18T11:49:31.717Z,73.14
2019-02-18T11:54:39.800Z,70.11
2019-02-18T11:59:46.835Z,71.33
2019-02-18T12:04:57.063Z,71.67
2019-02-18T12:10:01.648Z,70.75
2019-02-18T12:15:13.724Z,63.00
2019-02-18T12:20:21.396Z,44.67
2019-02-18T12:25:28.845Z,53.25
2019-02-18T12:30:36.271Z,48.75
2019-02-18T12:35:44.835Z,49.36
2019-02-18T12:40:49.692Z,50.00
2019-02-18T12:45:58.149Z,54.13
2019-02-18T12:51:04.197Z,45.25
2019-02-18T12:56:13.626Z,49.50
2019-02-18T13:01:23.809Z,42.22
2019-02-18T13:06:30.065Z,44.88
2019-02-18T13:11:39.321Z,35.88
2019-02-18T13:16:46.930Z,35.67
2019-02-18T13:21:50.298Z,34.33
2019-02-18T13:26:57.976Z,32.50
2019-02-18T13:32:06.110Z,34.00
2019-02-18T13:37:12.270Z,26.50
2019-02-18T13:42:20.695Z,17.86
2019-02-18T13:47:25.627Z,23.50
2019-02-18T13:52:34.145Z,27.50
2019-02-18T13:57:40.295Z,22.86
2019-02-18T14:02:46.398Z,19.29
2019-02-18T14:07:50.533Z,20.00
2019-02-18T14:12:56.377Z,19.37
2019-02-18T14:18:02.277Z,20.00
2019-02-18T14:23:07.384Z,24.50
2019-02-18T14:28:12.478Z,21.00
2019-02-18T14:33:17.406Z,24.25
2019-02-18T14:38:21.443Z,26.00
2019-02-18T14:43:24.650Z,25.50
2019-02-18T14:48:32.356Z,34.75
2019-02-18T14:53:38.356Z,32.00
2019-02-18T14:58:46.891Z,30.25
2019-02-18T15:03:49.766Z,27.33
2019-02-18T15:08:53.583Z,37.00
2019-02-18T15:14:00.415Z,30.62
2019-02-18T15:19:09.036Z,38.86
2019-02-18T15:24:15.775Z,38.50
2019-02-18T15:29:23.322Z,49.13
2019-02-18T15:34:30.711Z,51.50
2019-02-18T15:39:36.911Z,53.00
2019-02-18T15:44:41.942Z,47.00
2019-02-18T15:49:46.362Z,49.50
2019-02-18T15:54:52.384Z,50.38
2019-02-18T16:00:01.053Z,47.88
2019-02-18T16:05:05.784Z,43.75
2019-02-18T16:10:14.230Z,45.25
2019-02-18T16:15:20.453Z,47.75
2019-02-18T16:20:29.016Z,55.12
2019-02-18T16:25:35.194Z,49.88
2019-02-18T16:30:41.964Z,44.75
2019-02-18T16:35:49.451Z,55.12
2019-02-18T16:40:55.616Z,45.63
2019-02-18T16:46:05.198Z,62.38
2019-02-18T16:51:10.503Z,55.50
2019-02-18T16:56:19.259Z,55.88
2019-02-18T17:01:25.641Z,66.37
2019-02-18T17:06:31.695Z,61.00
2019-02-18T17:11:37.962Z,64.62
2019-02-18T17:16:44.134Z,60.63
2019-02-18T17:21:50.424Z,63.25
2019-02-18T17:26:56.895Z,66.00
2019-02-18T17:32:01.610Z,68.50
2019-02-18T17:37:11.318Z,67.33
2019-02-18T17:42:20.975Z,72.00
2019-02-18T17:47:29.727Z,73.37
2019-02-18T17:52:37.118Z,71.56
2019-02-18T17:57:47.001Z,107.89
2019-02-18T18:02:50.898Z,139.40
2019-02-18T18:07:58.900Z,116.45
2019-02-18T18:13:09.854Z,93.40
2019-02-18T18:18:18.884Z,76.25
2019-02-18T18:23:27.181Z,79.00
2019-02-18T18:28:34.351Z,78.62
2019-02-18T18:33:41.838Z,76.78
2019-02-18T18:38:48.745Z,75.87
2019-02-18T18:43:56.739Z,76.75
2019-02-18T18:49:05.139Z,77.78
2019-02-18T18:54:09.849Z,74.50
2019-02-18T18:59:17.495Z,78.78
2019-02-18T19:04:25.830Z,83.44
2019-02-18T19:09:32.657Z,79.12
2019-02-18T19:14:37.528Z,78.75
2019-02-18T19:19:45.966Z,78.50
2019-02-18T19:24:56.098Z,82.11
2019-02-18T19:30:07.994Z,85.00
2019-02-18T19:35:18.338Z,84.00
2019-02-18T19:40:29.241Z,89.00
2019-02-18T19:45:39.798Z,89.00
2019-02-18T19:50:48.814Z,101.00
2019-02-18T19:55:58.700Z,104.18
2019-02-18T20:01:11.282Z,114.00
2019-02-18T20:06:16.244Z,117.20
2019-02-18T20:11:29.383Z,128.06
2019-02-18T20:16:33.336Z,120.40
2019-02-18T20:21:37.247Z,127.00
2019-02-18T20:26:40.969Z,130.20
2019-02-18T20:31:47.565Z,138.00
2019-02-18T20:36:56.579Z,132.42
2019-02-18T20:42:00.990Z,137.80
2019-02-18T20:47:04.765Z,145.60
2019-02-18T20:52:08.561Z,146.20
2019-02-18T20:57:13.121Z,143.50
2019-02-18T21:02:18.952Z,143.00
2019-02-18T21:07:23.151Z,158.20
2019-02-18T21:12:27.634Z,161.00
2019-02-18T21:17:35.601Z,157.55
2019-02-18T21:22:45.480Z,157.62
2019-02-18T21:27:50.694Z,161.50
2019-02-18T21:33:01.939Z,158.14
2019-02-18T21:38:06.381Z,163.00
2019-02-18T21:43:14.953Z,163.17
2019-02-18T21:48:19.266Z,166.33
2019-02-18T21:53:27.007Z,157.27
2019-02-18T21:58:35.534Z,162.45
2019-02-18T22:03:44.933Z,172.17
2019-02-18T22:08:48.447Z,152.50
2019-02-18T22:13:57.446Z,154.36
2019-02-18T22:19:06.419Z,158.42
2019-02-18T22:24:15.064Z,157.17
2019-02-18T22:29:23.230Z,162.18
2019-02-18T22:34:32.467Z,155.33
2019-02-18T22:39:36.771Z,164.80
2019-02-18T22:44:45.627Z,159.33
2019-02-18T22:49:54.370Z,165.92
2019-02-18T22:55:05.362Z,160.50
2019-02-18T23:00:31.438Z,160.55
2019-02-18T23:05:41.734Z,161.17
2019-02-18T23:10:50.479Z,154.00
2019-02-18T23:16:01.414Z,170.23
2019-02-18T23:21:11.751Z,174.38
2019-02-18T23:26:15.547Z,168.60
2019-02-18T23:31:23.363Z,171.20
2019-02-18T23:36:33.576Z,164.92
2019-02-18T23:41:38.869Z,165.00
2019-02-18T23:46:47.738Z,171.42
2019-02-18T23:51:51.843Z,164.00
2019-02-18T23:56:59.079Z,159.80
